Time;durP1;ratioP1;P1;durP2;ratioP2;P2;SDS_P1;SDS_P2;PMS_P1;PMS_P2;Temp;Humidity;BMP_temperature;BMP_pressure;BME280_temperature;BME280_humidity;BME280_pressure;Samples;Min_cycle;Max_cycle;Signal;HPM_P1;HPM_P2
2021/11/22 00:00:35;;;;;;;0.38;0.38;;;;;;;;;;5056985;28;20039;-86
2021/11/22 00:03:01;;;;;;;0.40;0.40;;;;;;;;;;5056691;28;20075;-85
2021/11/22 00:05:27;;;;;;;0.40;0.40;;;;;;;;;;5066994;28;20051;-84
2021/11/22 00:07:54;;;;;;;0.30;0.30;;;;;;;;;;5061699;28;20029;-86
2021/11/22 00:10:20;;;;;;;0.40;0.40;;;;;;;;;;5060140;28;20467;-84
2021/11/22 00:12:46;;;;;;;0.60;0.60;;;;;;;;;;5059004;28;20020;-85
2021/11/22 00:15:13;;;;;;;0.30;0.30;;;;;;;;;;5053192;28;20037;-85
2021/11/22 00:17:40;;;;;;;0.40;0.40;;;;;;;;;;5065440;28;20036;-84
2021/11/22 00:20:07;;;;;;;0.38;0.38;;;;;;;;;;5063997;28;20028;-86
2021/11/22 00:22:33;;;;;;;0.40;0.40;;;;;;;;;;5052031;28;20584;-85
2021/11/22 00:25:00;;;;;;;0.40;0.40;;;;;;;;;;5064702;28;20147;-84
2021/11/22 00:27:26;;;;;;;;;;;;;;;;;;5058586;28;21140;-84
2021/11/22 00:29:52;;;;;;;0.40;0.40;;;;;;;;;;5095212;27;19916;-84
2021/11/22 00:32:18;;;;;;;0.20;0.20;;;;;;;;;;5056747;28;20040;-84
2021/11/22 00:34:44;;;;;;;0.30;0.30;;;;;;;;;;5062875;28;20024;-85
2021/11/22 00:37:16;;;;;;;0.30;0.30;;;;;;;;;;5074777;28;20032;-84
2021/11/22 00:39:42;;;;;;;0.30;0.30;;;;;;;;;;5069752;28;20457;-85
2021/11/22 00:42:08;;;;;;;0.30;0.30;;;;;;;;;;5059542;28;20020;-86
2021/11/22 00:44:35;;;;;;;0.45;0.45;;;;;;;;;;5064981;28;20036;-84
2021/11/22 00:47:01;;;;;;;0.30;0.30;;;;;;;;;;5059772;28;20048;-84
2021/11/22 00:49:28;;;;;;;0.30;0.30;;;;;;;;;;5059359;28;20032;-83
2021/11/22 00:51:54;;;;;;;0.30;0.30;;;;;;;;;;5058837;28;20032;-83
2021/11/22 00:54:20;;;;;;;0.40;0.40;;;;;;;;;;5061895;28;20618;-84
2021/11/22 00:56:46;;;;;;;0.22;0.22;;;;;;;;;;5062813;28;20033;-84
2021/11/22 00:59:12;;;;;;;0.33;0.33;;;;;;;;;;5065182;28;20035;-83
2021/11/22 01:01:38;;;;;;;0.30;0.30;;;;;;;;;;5058941;28;20032;-84
2021/11/22 01:04:04;;;;;;;0.30;0.30;;;;;;;;;;5066734;28;20048;-84
2021/11/22 01:06:30;;;;;;;0.30;0.30;;;;;;;;;;5061914;28;20266;-84
2021/11/22 01:08:57;;;;;;;0.57;0.57;;;;;;;;;;5060375;28;20039;-84
2021/11/22 01:11:23;;;;;;;0.40;0.40;;;;;;;;;;5060103;28;20611;-84
2021/11/22 01:13:49;;;;;;;0.20;0.20;;;;;;;;;;5062897;28;20517;-85
2021/11/22 01:16:15;;;;;;;0.20;0.20;;;;;;;;;;5055374;28;20040;-84
2021/11/22 01:18:41;;;;;;;0.30;0.30;;;;;;;;;;5058886;28;20059;-84
2021/11/22 01:21:07;;;;;;;0.40;0.40;;;;;;;;;;5055650;28;20032;-84
2021/11/22 01:23:34;;;;;;;0.40;0.40;;;;;;;;;;5063758;28;20293;-85
2021/11/22 01:26:00;;;;;;;0.38;0.38;;;;;;;;;;5058525;28;20389;-85
2021/11/22 01:28:27;;;;;;;0.30;0.30;;;;;;;;;;5053969;28;20556;-85
2021/11/22 01:30:53;;;;;;;;;;;;;;;;;;5063621;28;20048;-85
2021/11/22 01:33:19;;;;;;;0.30;0.30;;;;;;;;;;5062165;28;19913;-85
2021/11/22 01:35:46;;;;;;;0.30;0.30;;;;;;;;;;5062558;28;20039;-84
2021/11/22 01:38:12;;;;;;;0.30;0.30;;;;;;;;;;5060989;28;20457;-84
2021/11/22 01:40:39;;;;;;;0.20;0.20;;;;;;;;;;5061232;28;20029;-84
2021/11/22 01:43:05;;;;;;;0.30;0.30;;;;;;;;;;5066235;28;20048;-84
2021/11/22 01:45:33;;;;;;;0.30;0.30;;;;;;;;;;5064627;28;20937;-85
2021/11/22 01:48:00;;;;;;;0.40;0.40;;;;;;;;;;5067273;28;20401;-84
2021/11/22 01:50:26;;;;;;;0.38;0.38;;;;;;;;;;5062734;28;20034;-83
2021/11/22 01:52:53;;;;;;;0.40;0.40;;;;;;;;;;5061221;28;20114;-85
2021/11/22 01:55:21;;;;;;;0.30;0.30;;;;;;;;;;5064287;28;20045;-84
2021/11/22 01:57:48;;;;;;;0.20;0.20;;;;;;;;;;5064693;28;20553;-86
2021/11/22 02:00:17;;;;;;;0.32;0.32;;;;;;;;;;5067261;28;20033;-85
2021/11/22 02:02:43;;;;;;;0.30;0.30;;;;;;;;;;5070937;28;20497;-85
2021/11/22 02:05:09;;;;;;;0.40;0.40;;;;;;;;;;5066865;28;20047;-85
2021/11/22 02:07:36;;;;;;;0.20;0.20;;;;;;;;;;5061580;28;20037;-85
2021/11/22 02:10:04;;;;;;;0.32;0.32;;;;;;;;;;5062026;28;20082;-85
2021/11/22 02:12:31;;;;;;;0.35;0.35;;;;;;;;;;5064476;28;20035;-85
2021/11/22 02:14:57;;;;;;;0.28;0.28;;;;;;;;;;5058684;28;20029;-86
2021/11/22 02:17:23;;;;;;;0.30;0.30;;;;;;;;;;5059913;28;20039;-84
2021/11/22 02:19:55;;;;;;;0.30;0.30;;;;;;;;;;5065081;28;20025;-84
2021/11/22 02:22:21;;;;;;;0.30;0.30;;;;;;;;;;5069406;28;20032;-84
2021/11/22 02:24:47;;;;;;;0.43;0.43;;;;;;;;;;5067360;28;20044;-84
2021/11/22 02:27:13;;;;;;;0.40;0.40;;;;;;;;;;5057525;28;20132;-85
2021/11/22 02:29:39;;;;;;;0.40;0.40;;;;;;;;;;5060491;28;20156;-85
2021/11/22 02:32:05;;;;;;;0.40;0.40;;;;;;;;;;5064478;28;20039;-85
2021/11/22 02:34:32;;;;;;;0.20;0.20;;;;;;;;;;5063031;28;20044;-85
2021/11/22 02:36:58;;;;;;;0.30;0.30;;;;;;;;;;5060892;28;20625;-84
2021/11/22 02:39:24;;;;;;;0.35;0.35;;;;;;;;;;5065308;28;20512;-85
2021/11/22 02:41:50;;;;;;;0.33;0.33;;;;;;;;;;5061620;28;20064;-83
2021/11/22 02:44:16;;;;;;;0.40;0.40;;;;;;;;;;5055757;28;20307;-85
2021/11/22 02:46:42;;;;;;;0.40;0.40;;;;;;;;;;5055065;28;20029;-85
2021/11/22 02:49:08;;;;;;;0.40;0.40;;;;;;;;;;5062590;28;20086;-84
2021/11/22 02:51:34;;;;;;;0.30;0.30;;;;;;;;;;5060413;28;20050;-84
2021/11/22 02:54:01;;;;;;;0.30;0.30;;;;;;;;;;5062912;28;20469;-83
2021/11/22 02:56:34;;;;;;;0.40;0.40;;;;;;;;;;5064723;28;20408;-84
2021/11/22 02:59:01;;;;;;;0.30;0.30;;;;;;;;;;5061492;28;20028;-84
2021/11/22 03:01:27;;;;;;;0.30;0.30;;;;;;;;;;5058523;28;20032;-83
2021/11/22 03:03:55;;;;;;;0.30;0.30;;;;;;;;;;5078278;28;20108;-83
2021/11/22 03:06:21;;;;;;;0.30;0.30;;;;;;;;;;5070275;28;20060;-84
2021/11/22 03:08:48;;;;;;;0.40;0.40;;;;;;;;;;5063948;28;20028;-83
2021/11/22 03:11:14;;;;;;;0.20;0.20;;;;;;;;;;5053084;28;20024;-84
2021/11/22 03:13:41;;;;;;;0.30;0.30;;;;;;;;;;5065554;28;20083;-84
2021/11/22 03:16:07;;;;;;;0.30;0.30;;;;;;;;;;5058873;28;20572;-84
2021/11/22 03:18:34;;;;;;;0.35;0.35;;;;;;;;;;5058974;28;20028;-83
2021/11/22 03:21:00;;;;;;;0.40;0.40;;;;;;;;;;5062935;28;20086;-84
2021/11/22 03:23:27;;;;;;;0.30;0.30;;;;;;;;;;5066510;28;20154;-83
2021/11/22 03:25:53;;;;;;;0.40;0.40;;;;;;;;;;5054100;28;20037;-83
2021/11/22 03:28:20;;;;;;;0.30;0.30;;;;;;;;;;5060899;28;20084;-83
2021/11/22 03:30:46;;;;;;;;;;;;;;;;;;5063135;28;20282;-83
2021/11/22 03:33:13;;;;;;;0.30;0.30;;;;;;;;;;5064291;28;20292;-83
2021/11/22 03:35:41;;;;;;;0.40;0.40;;;;;;;;;;5060751;28;20039;-83
2021/11/22 03:38:08;;;;;;;0.30;0.30;;;;;;;;;;5064053;28;20063;-84
2021/11/22 03:40:35;;;;;;;0.30;0.30;;;;;;;;;;5055269;28;20592;-84
2021/11/22 03:45:38;;;;;;;0.35;0.35;;;;;;;;;;5062962;28;20127;-84
2021/11/22 03:48:05;;;;;;;0.40;0.40;;;;;;;;;;5067500;28;20135;-84
2021/11/22 03:50:31;;;;;;;0.40;0.40;;;;;;;;;;5063503;28;20025;-84
2021/11/22 03:52:57;;;;;;;0.30;0.30;;;;;;;;;;5058602;28;20420;-84
2021/11/22 03:55:23;;;;;;;0.30;0.30;;;;;;;;;;5067304;28;20051;-84
2021/11/22 03:57:49;;;;;;;0.30;0.30;;;;;;;;;;5067189;28;20138;-84
2021/11/22 04:00:16;;;;;;;0.30;0.30;;;;;;;;;;5060785;28;20563;-83
2021/11/22 04:02:42;;;;;;;0.40;0.40;;;;;;;;;;5068900;28;20393;-84
2021/11/22 04:05:09;;;;;;;0.32;0.32;;;;;;;;;;5066812;28;20052;-83
2021/11/22 04:07:35;;;;;;;0.40;0.40;;;;;;;;;;5052688;28;20795;-84
2021/11/22 04:10:01;;;;;;;0.30;0.30;;;;;;;;;;5060866;28;20035;-83
2021/11/22 04:12:28;;;;;;;0.40;0.40;;;;;;;;;;5053669;28;20033;-84
2021/11/22 04:14:54;;;;;;;0.40;0.40;;;;;;;;;;5062518;28;20109;-85
2021/11/22 04:17:20;;;;;;;0.30;0.30;;;;;;;;;;5060794;28;20078;-84
2021/11/22 04:19:46;;;;;;;0.30;0.30;;;;;;;;;;5065331;28;20119;-84
2021/11/22 04:22:12;;;;;;;0.30;0.30;;;;;;;;;;5064806;28;20112;-84
2021/11/22 04:24:39;;;;;;;0.40;0.40;;;;;;;;;;5071123;28;20115;-83
2021/11/22 04:27:08;;;;;;;0.40;0.40;;;;;;;;;;5063470;28;20810;-83
2021/11/22 04:29:34;;;;;;;0.30;0.30;;;;;;;;;;5053325;28;20109;-83
2021/11/22 04:32:00;;;;;;;0.30;0.30;;;;;;;;;;5063707;28;20027;-83
2021/11/22 04:34:26;;;;;;;0.40;0.40;;;;;;;;;;5057997;28;20031;-84
2021/11/22 04:36:52;;;;;;;0.30;0.30;;;;;;;;;;5067611;28;20111;-83
2021/11/22 04:39:18;;;;;;;0.30;0.30;;;;;;;;;;5060051;28;20036;-83
2021/11/22 04:41:44;;;;;;;0.40;0.40;;;;;;;;;;5065107;28;20028;-84
2021/11/22 04:44:10;;;;;;;0.40;0.40;;;;;;;;;;5074898;28;20052;-84
2021/11/22 04:46:36;;;;;;;0.40;0.40;;;;;;;;;;5057830;28;20033;-83
2021/11/22 04:49:02;;;;;;;0.40;0.40;;;;;;;;;;5068845;28;20020;-84
2021/11/22 04:51:28;;;;;;;0.30;0.30;;;;;;;;;;5064462;28;20071;-84
2021/11/22 04:53:55;;;;;;;0.30;0.30;;;;;;;;;;5064076;28;20762;-83
2021/11/22 04:56:21;;;;;;;0.20;0.20;;;;;;;;;;5063165;28;20039;-83
2021/11/22 04:58:47;;;;;;;0.30;0.30;;;;;;;;;;5062508;28;20045;-85
2021/11/22 05:01:13;;;;;;;0.40;0.40;;;;;;;;;;5064897;28;20497;-83
2021/11/22 05:03:39;;;;;;;0.30;0.30;;;;;;;;;;5067410;28;20269;-85
2021/11/22 05:06:05;;;;;;;0.50;0.50;;;;;;;;;;5063744;28;20059;-85
2021/11/22 05:08:31;;;;;;;0.40;0.40;;;;;;;;;;5064511;28;20055;-84
2021/11/22 05:10:57;;;;;;;0.40;0.40;;;;;;;;;;5062350;28;20040;-84
2021/11/22 05:13:23;;;;;;;0.30;0.30;;;;;;;;;;5053118;28;20035;-84
2021/11/22 05:15:50;;;;;;;0.30;0.30;;;;;;;;;;5056780;28;20033;-84
2021/11/22 05:18:16;;;;;;;0.32;0.32;;;;;;;;;;5068961;28;20169;-85
2021/11/22 05:20:44;;;;;;;0.30;0.30;;;;;;;;;;5062134;28;20124;-86
2021/11/22 05:23:10;;;;;;;0.35;0.35;;;;;;;;;;5054098;28;20468;-84
2021/11/22 05:25:37;;;;;;;0.30;0.30;;;;;;;;;;5078424;28;20164;-83
2021/11/22 05:28:03;;;;;;;0.50;0.50;;;;;;;;;;5064678;28;20493;-83
2021/11/22 05:30:29;;;;;;;0.40;0.40;;;;;;;;;;5066543;28;20077;-84
2021/11/22 05:32:59;;;;;;;0.37;0.37;;;;;;;;;;5066999;28;20036;-84
2021/11/22 05:35:26;;;;;;;0.30;0.30;;;;;;;;;;5063903;28;20033;-84
2021/11/22 05:37:52;;;;;;;0.35;0.35;;;;;;;;;;5063698;28;20033;-83
2021/11/22 05:40:18;;;;;;;0.30;0.30;;;;;;;;;;5064831;28;20203;-86
2021/11/22 05:42:45;;;;;;;0.40;0.40;;;;;;;;;;5070075;28;20079;-84
2021/11/22 05:45:11;;;;;;;0.30;0.30;;;;;;;;;;5068085;28;20040;-83
2021/11/22 05:47:37;;;;;;;0.40;0.40;;;;;;;;;;5070976;28;20279;-87
2021/11/22 05:50:06;;;;;;;0.30;0.30;;;;;;;;;;5057477;28;20090;-86
2021/11/22 05:52:34;;;;;;;0.40;0.40;;;;;;;;;;5075640;28;20055;-86
2021/11/22 05:55:00;;;;;;;0.30;0.30;;;;;;;;;;5087055;28;20060;-86
2021/11/22 05:57:26;;;;;;;0.40;0.40;;;;;;;;;;5070149;28;20032;-88
2021/11/22 05:59:52;;;;;;;0.35;0.35;;;;;;;;;;5067816;28;20035;-89
2021/11/22 06:02:18;;;;;;;0.40;0.40;;;;;;;;;;5064883;28;20555;-86
2021/11/22 06:04:44;;;;;;;0.45;0.45;;;;;;;;;;5076193;28;20044;-85
2021/11/22 06:07:10;;;;;;;0.30;0.30;;;;;;;;;;5055176;28;20047;-87
2021/11/22 06:09:37;;;;;;;0.30;0.30;;;;;;;;;;5054921;28;20032;-86
2021/11/22 06:12:03;;;;;;;0.30;0.30;;;;;;;;;;5055491;28;20378;-86
2021/11/22 06:14:29;;;;;;;0.30;0.30;;;;;;;;;;5052591;28;20064;-85
2021/11/22 06:16:55;;;;;;;0.35;0.35;;;;;;;;;;5051725;28;20024;-87
2021/11/22 06:19:21;;;;;;;0.30;0.30;;;;;;;;;;5054516;28;20466;-86
2021/11/22 06:21:47;;;;;;;0.40;0.40;;;;;;;;;;5053717;28;20029;-85
2021/11/22 06:24:14;;;;;;;0.30;0.30;;;;;;;;;;5057758;28;20283;-85
2021/11/22 06:26:40;;;;;;;0.30;0.30;;;;;;;;;;5054466;28;20603;-85
2021/11/22 06:29:08;;;;;;;0.40;0.40;;;;;;;;;;5053831;28;20025;-85
2021/11/22 06:31:34;;;;;;;0.40;0.40;;;;;;;;;;5055851;28;20053;-86
2021/11/22 06:34:00;;;;;;;0.40;0.40;;;;;;;;;;5061343;28;20031;-85
2021/11/22 06:36:26;;;;;;;0.30;0.30;;;;;;;;;;5063887;28;20037;-87
2021/11/22 06:38:52;;;;;;;0.40;0.40;;;;;;;;;;5065442;28;20039;-86
2021/11/22 06:41:18;;;;;;;0.40;0.40;;;;;;;;;;5060652;28;20020;-85
2021/11/22 06:43:44;;;;;;;0.30;0.30;;;;;;;;;;5067499;28;20053;-86
2021/11/22 06:46:11;;;;;;;0.30;0.30;;;;;;;;;;5066672;28;20839;-87
2021/11/22 06:48:37;;;;;;;0.40;0.40;;;;;;;;;;5070786;28;20066;-88
2021/11/22 06:51:04;;;;;;;0.40;0.40;;;;;;;;;;5071062;28;20469;-86
2021/11/22 06:53:29;;;;;;;;;;;;;;;;;;5070514;28;20509;-89
2021/11/22 06:55:55;;;;;;;0.30;0.30;;;;;;;;;;5069038;28;19917;-90
2021/11/22 06:58:22;;;;;;;0.20;0.20;;;;;;;;;;5067383;28;20037;-89
2021/11/22 07:00:49;;;;;;;0.30;0.30;;;;;;;;;;5070128;28;20119;-84
2021/11/22 07:03:15;;;;;;;0.22;0.22;;;;;;;;;;5066302;28;20040;-85
2021/11/22 07:05:41;;;;;;;0.20;0.20;;;;;;;;;;5066196;28;20043;-85
2021/11/22 07:08:08;;;;;;;0.30;0.30;;;;;;;;;;5067060;28;20408;-86
2021/11/22 07:10:34;;;;;;;0.30;0.30;;;;;;;;;;5065163;28;20414;-89
2021/11/22 07:13:00;;;;;;;0.30;0.30;;;;;;;;;;5073513;28;20080;-86
2021/11/22 07:15:33;;;;;;;0.30;0.30;;;;;;;;;;5068787;28;20090;-88
2021/11/22 07:17:59;;;;;;;0.30;0.30;;;;;;;;;;5068387;28;20036;-88
2021/11/22 07:20:25;;;;;;;0.30;0.30;;;;;;;;;;5071255;28;20100;-87
2021/11/22 07:22:51;;;;;;;0.30;0.30;;;;;;;;;;5077985;28;20075;-87
2021/11/22 07:25:18;;;;;;;0.30;0.30;;;;;;;;;;5067613;28;20429;-86
2021/11/22 07:27:44;;;;;;;0.30;0.30;;;;;;;;;;5069907;28;20288;-88
2021/11/22 07:30:11;;;;;;;0.30;0.30;;;;;;;;;;5068456;28;20067;-88
2021/11/22 07:32:37;;;;;;;0.40;0.40;;;;;;;;;;5068874;28;20183;-89
2021/11/22 07:35:03;;;;;;;0.30;0.30;;;;;;;;;;5065461;28;20035;-88
2021/11/22 07:37:29;;;;;;;0.40;0.40;;;;;;;;;;5063262;28;20024;-87
2021/11/22 07:39:55;;;;;;;0.47;0.47;;;;;;;;;;5070772;28;20119;-87
2021/11/22 07:42:21;;;;;;;0.40;0.40;;;;;;;;;;5069870;28;20619;-88
2021/11/22 07:44:49;;;;;;;0.30;0.30;;;;;;;;;;5068653;28;20062;-88
2021/11/22 07:47:15;;;;;;;0.40;0.40;;;;;;;;;;5067317;28;20138;-89
2021/11/22 07:49:42;;;;;;;0.30;0.30;;;;;;;;;;5079371;28;20505;-90
2021/11/22 07:52:08;;;;;;;0.40;0.40;;;;;;;;;;5071696;28;20021;-90
2021/11/22 07:54:34;;;;;;;0.30;0.30;;;;;;;;;;5067161;28;20045;-85
2021/11/22 07:57:00;;;;;;;0.30;0.30;;;;;;;;;;5067128;28;20420;-87
2021/11/22 07:59:27;;;;;;;0.30;0.30;;;;;;;;;;5066793;28;20675;-87
2021/11/22 08:01:53;;;;;;;0.40;0.40;;;;;;;;;;5064969;28;20287;-87
2021/11/22 08:04:19;;;;;;;0.30;0.30;;;;;;;;;;5080079;28;20082;-87
2021/11/22 08:06:48;;;;;;;0.30;0.30;;;;;;;;;;5070220;28;20550;-89
2021/11/22 08:09:24;;;;;;;0.50;0.50;;;;;;;;;;5067420;28;20039;-85
2021/11/22 08:14:35;;;;;;;0.30;0.30;;;;;;;;;;5067058;28;20024;-85
2021/11/22 08:17:01;;;;;;;0.28;0.28;;;;;;;;;;5063748;28;20035;-84
2021/11/22 08:19:27;;;;;;;0.35;0.35;;;;;;;;;;5063245;28;20524;-87
2021/11/22 08:21:53;;;;;;;0.28;0.28;;;;;;;;;;5062632;28;20036;-87
2021/11/22 08:24:20;;;;;;;0.40;0.40;;;;;;;;;;5064152;28;20048;-87
2021/11/22 08:26:46;;;;;;;0.30;0.30;;;;;;;;;;5064045;28;20085;-86
2021/11/22 08:29:12;;;;;;;0.40;0.40;;;;;;;;;;5066828;28;20035;-87
2021/11/22 08:31:38;;;;;;;0.30;0.30;;;;;;;;;;5062221;28;20033;-87
2021/11/22 08:34:04;;;;;;;0.30;0.30;;;;;;;;;;5068919;28;20032;-87
2021/11/22 08:36:30;;;;;;;0.47;0.47;;;;;;;;;;5065485;28;20036;-88
2021/11/22 08:38:56;;;;;;;0.47;0.47;;;;;;;;;;5066508;28;20131;-87
2021/11/22 08:41:22;;;;;;;0.30;0.30;;;;;;;;;;5065857;28;20063;-87
2021/11/22 08:43:48;;;;;;;0.30;0.30;;;;;;;;;;5064045;28;20032;-87
2021/11/22 08:46:15;;;;;;;0.30;0.30;;;;;;;;;;5065801;28;20493;-87
2021/11/22 08:48:41;;;;;;;0.40;0.40;;;;;;;;;;5067158;28;20025;-86
2021/11/22 08:51:08;;;;;;;0.37;0.37;;;;;;;;;;5065771;28;20028;-87
2021/11/22 08:53:34;;;;;;;;;;;;;;;;;;5066740;28;20039;-87
2021/11/22 08:56:00;;;;;;;0.30;0.30;;;;;;;;;;5064314;28;20376;-86
2021/11/22 08:58:26;;;;;;;0.30;0.30;;;;;;;;;;5063547;28;20035;-87
2021/11/22 09:00:52;;;;;;;0.30;0.30;;;;;;;;;;5080912;28;20064;-86
2021/11/22 09:03:18;;;;;;;0.30;0.30;;;;;;;;;;5066995;28;20036;-86
2021/11/22 09:05:44;;;;;;;0.40;0.40;;;;;;;;;;5065808;28;20416;-87
2021/11/22 09:08:11;;;;;;;0.40;0.40;;;;;;;;;;5065855;28;20449;-86
2021/11/22 09:10:38;;;;;;;0.30;0.30;;;;;;;;;;5045637;28;20404;-87
2021/11/22 09:13:05;;;;;;;0.30;0.30;;;;;;;;;;5068224;28;20103;-87
2021/11/22 09:15:32;;;;;;;0.30;0.30;;;;;;;;;;5065944;28;20029;-87
2021/11/22 09:17:58;;;;;;;0.40;0.40;;;;;;;;;;5065730;28;20029;-86
2021/11/22 09:20:25;;;;;;;0.40;0.40;;;;;;;;;;5066140;28;20036;-86
2021/11/22 09:22:56;;;;;;;0.30;0.30;;;;;;;;;;5063181;28;20036;-87
2021/11/22 09:25:22;;;;;;;0.40;0.40;;;;;;;;;;5063174;28;20708;-87
2021/11/22 09:27:50;;;;;;;0.35;0.35;;;;;;;;;;5067439;28;20031;-87
2021/11/22 09:30:16;;;;;;;0.93;0.93;;;;;;;;;;5065059;28;20033;-88
2021/11/22 09:32:42;;;;;;;0.50;0.50;;;;;;;;;;5065898;28;20038;-88
2021/11/22 09:35:08;;;;;;;0.40;0.40;;;;;;;;;;5065345;28;20378;-87
2021/11/22 09:37:35;;;;;;;0.43;0.43;;;;;;;;;;5061326;28;20818;-86
2021/11/22 09:40:01;;;;;;;0.40;0.40;;;;;;;;;;5067878;28;20036;-87
2021/11/22 09:42:27;;;;;;;0.40;0.40;;;;;;;;;;5065274;28;20136;-87
2021/11/22 09:44:53;;;;;;;0.40;0.40;;;;;;;;;;5063881;28;20409;-88
2021/11/22 09:47:20;;;;;;;0.30;0.30;;;;;;;;;;5065886;28;20017;-88
2021/11/22 09:49:46;;;;;;;0.70;0.70;;;;;;;;;;5062383;28;20069;-87
2021/11/22 09:52:12;;;;;;;0.50;0.50;;;;;;;;;;5066200;28;20058;-88
2021/11/22 09:54:39;;;;;;;0.50;0.50;;;;;;;;;;5066405;28;20044;-87
2021/11/22 09:57:05;;;;;;;0.50;0.50;;;;;;;;;;5072685;28;20109;-87
2021/11/22 09:59:31;;;;;;;0.50;0.50;;;;;;;;;;5074605;28;20051;-87
2021/11/22 10:01:57;;;;;;;0.40;0.40;;;;;;;;;;5062644;28;20035;-87
2021/11/22 10:04:28;;;;;;;0.60;0.60;;;;;;;;;;5083187;28;20040;-88
2021/11/22 10:06:55;;;;;;;0.52;0.52;;;;;;;;;;5082230;28;20035;-87
2021/11/22 10:09:34;;;;;;;0.40;0.40;;;;;;;;;;5071361;28;20033;-86
2021/11/22 10:12:05;;;;;;;0.50;0.50;;;;;;;;;;5068124;28;20041;-87
2021/11/22 10:14:40;;;;;;;0.50;0.50;;;;;;;;;;5068412;28;20457;-87
2021/11/22 10:17:25;;;;;;;0.50;0.50;;;;;;;;;;5068329;28;20027;-87
2021/11/22 10:20:10;;;;;;;0.40;0.40;;;;;;;;;;5050164;28;20029;-87
2021/11/22 10:22:41;;;;;;;0.40;0.40;;;;;;;;;;5064356;28;20028;-87
2021/11/22 10:25:30;;;;;;;0.40;0.40;;;;;;;;;;5046469;28;20074;-87
2021/11/22 10:28:01;;;;;;;0.50;0.50;;;;;;;;;;5069607;28;20124;-87
2021/11/22 10:30:29;;;;;;;0.35;0.35;;;;;;;;;;5068468;28;20020;-87
2021/11/22 10:32:57;;;;;;;0.38;0.38;;;;;;;;;;5068766;28;20046;-88
2021/11/22 10:35:24;;;;;;;0.40;0.40;;;;;;;;;;5068121;28;20038;-87
2021/11/22 10:37:53;;;;;;;0.40;0.40;;;;;;;;;;5064732;28;20040;-87
2021/11/22 10:40:20;;;;;;;0.30;0.30;;;;;;;;;;5067839;28;20061;-86
2021/11/22 10:42:46;;;;;;;0.50;0.50;;;;;;;;;;5068353;28;20055;-88
2021/11/22 10:45:23;;;;;;;0.60;0.60;;;;;;;;;;5067400;28;20040;-88
2021/11/22 10:48:12;;;;;;;0.40;0.40;;;;;;;;;;5068259;28;20028;-87
2021/11/22 10:50:47;;;;;;;0.40;0.40;;;;;;;;;;5067341;28;20031;-87
2021/11/22 10:53:13;;;;;;;0.40;0.40;;;;;;;;;;5078487;28;20061;-87
2021/11/22 10:55:44;;;;;;;0.30;0.30;;;;;;;;;;5062268;28;20457;-87
2021/11/22 10:58:10;;;;;;;0.30;0.30;;;;;;;;;;5077878;28;20266;-87
2021/11/22 11:00:36;;;;;;;0.30;0.30;;;;;;;;;;5066193;28;20062;-86
2021/11/22 11:03:06;;;;;;;0.47;0.47;;;;;;;;;;5067870;28;20035;-87
2021/11/22 11:05:37;;;;;;;0.40;0.40;;;;;;;;;;5066216;28;20036;-86
2021/11/22 11:08:04;;;;;;;0.30;0.30;;;;;;;;;;5066344;28;20043;-87
2021/11/22 11:10:32;;;;;;;0.40;0.40;;;;;;;;;;5065182;28;20687;-88
2021/11/22 11:12:59;;;;;;;0.40;0.40;;;;;;;;;;5070104;28;20054;-87
2021/11/22 11:15:25;;;;;;;0.40;0.40;;;;;;;;;;5067762;28;20040;-87
2021/11/22 11:17:52;;;;;;;0.40;0.40;;;;;;;;;;5065780;28;20183;-87
2021/11/22 11:20:19;;;;;;;0.40;0.40;;;;;;;;;;5067598;28;20032;-87
2021/11/22 11:22:45;;;;;;;0.40;0.40;;;;;;;;;;5061682;28;20037;-86
2021/11/22 11:25:12;;;;;;;0.60;0.60;;;;;;;;;;5069226;28;20276;-88
2021/11/22 11:27:41;;;;;;;0.50;0.50;;;;;;;;;;5068317;28;20378;-87
2021/11/22 11:30:11;;;;;;;0.40;0.40;;;;;;;;;;5067902;28;20024;-87
2021/11/22 11:32:38;;;;;;;0.40;0.40;;;;;;;;;;5067306;28;20137;-87
2021/11/22 11:35:07;;;;;;;0.40;0.40;;;;;;;;;;5066388;28;20413;-88
2021/11/22 11:37:33;;;;;;;0.40;0.40;;;;;;;;;;5063515;28;20044;-87
2021/11/22 11:40:18;;;;;;;0.60;0.60;;;;;;;;;;5069766;28;20039;-87
2021/11/22 11:43:03;;;;;;;0.50;0.50;;;;;;;;;;5068195;28;20513;-88
2021/11/22 11:45:29;;;;;;;0.40;0.40;;;;;;;;;;5065749;28;20271;-87
2021/11/22 11:48:14;;;;;;;0.50;0.50;;;;;;;;;;5067296;28;20031;-87
2021/11/22 11:50:44;;;;;;;0.50;0.50;;;;;;;;;;5066380;28;20043;-88
2021/11/22 11:53:16;;;;;;;0.50;0.50;;;;;;;;;;5066629;28;20028;-88
2021/11/22 11:55:43;;;;;;;0.40;0.40;;;;;;;;;;5046941;28;20071;-87
2021/11/22 11:58:09;;;;;;;;;;;;;;;;;;5069268;28;20039;-88
2021/11/22 12:00:35;;;;;;;0.40;0.40;;;;;;;;;;5066733;28;20015;-87
2021/11/22 12:03:04;;;;;;;0.30;0.30;;;;;;;;;;5066427;28;20123;-87
2021/11/22 12:05:46;;;;;;;0.55;0.55;;;;;;;;;;5068910;28;20907;-87
2021/11/22 12:08:27;;;;;;;0.40;0.40;;;;;;;;;;5078166;28;20063;-86
2021/11/22 12:10:56;;;;;;;0.40;0.40;;;;;;;;;;5049858;28;20033;-88
2021/11/22 12:13:22;;;;;;;0.40;0.40;;;;;;;;;;5065219;28;20032;-88
2021/11/22 12:15:54;;;;;;;0.40;0.40;;;;;;;;;;5068467;28;20112;-87
2021/11/22 12:18:28;;;;;;;0.30;0.30;;;;;;;;;;5065438;28;20282;-87
2021/11/22 12:21:00;;;;;;;0.30;0.30;;;;;;;;;;5066680;28;20030;-87
2021/11/22 12:23:28;;;;;;;0.50;0.50;;;;;;;;;;5065082;28;20043;-87
2021/11/22 12:26:02;;;;;;;0.40;0.40;;;;;;;;;;5063231;28;20105;-87
2021/11/22 12:28:30;;;;;;;0.40;0.40;;;;;;;;;;5063711;28;20025;-85
2021/11/22 12:31:02;;;;;;;0.47;0.47;;;;;;;;;;5068448;28;20827;-88
2021/11/22 12:33:28;;;;;;;0.40;0.40;;;;;;;;;;5065721;28;20035;-87
2021/11/22 12:36:00;;;;;;;0.50;0.50;;;;;;;;;;5066108;28;20867;-87
2021/11/22 12:38:33;;;;;;;0.50;0.50;;;;;;;;;;5066354;28;20035;-86
2021/11/22 12:41:01;;;;;;;0.45;0.45;;;;;;;;;;5062699;28;20029;-87
2021/11/22 12:43:37;;;;;;;0.52;0.52;;;;;;;;;;5079336;28;20073;-87
2021/11/22 12:46:05;;;;;;;0.45;0.45;;;;;;;;;;5067964;28;20060;-87
2021/11/22 12:48:32;;;;;;;0.60;0.60;;;;;;;;;;5075094;28;20035;-87
2021/11/22 12:50:58;;;;;;;;;;;;;;;;;;5073172;28;20040;-87
2021/11/22 12:53:24;;;;;;;0.50;0.50;;;;;;;;;;5072343;28;20399;-88
2021/11/22 12:55:51;;;;;;;0.50;0.50;;;;;;;;;;5063040;28;20039;-87
2021/11/22 12:58:22;;;;;;;0.60;0.60;;;;;;;;;;5066093;28;20026;-86
2021/11/22 13:00:49;;;;;;;0.60;0.60;;;;;;;;;;5067685;28;20047;-87
2021/11/22 13:03:19;;;;;;;0.50;0.50;;;;;;;;;;5065383;28;20039;-88
2021/11/22 13:05:56;;;;;;;0.50;0.50;;;;;;;;;;5064648;28;20068;-88
2021/11/22 13:08:22;;;;;;;;;;;;;;;;;;5065295;28;20040;-87
2021/11/22 13:10:53;;;;;;;0.50;0.50;;;;;;;;;;5062648;28;19961;-87
2021/11/22 13:13:28;;;;;;;0.73;0.73;;;;;;;;;;5065429;28;20386;-87
2021/11/22 13:15:57;;;;;;;1.15;1.15;;;;;;;;;;5066648;28;20029;-86
2021/11/22 13:18:24;;;;;;;0.68;0.68;;;;;;;;;;5065761;28;20028;-87
2021/11/22 13:20:51;;;;;;;0.65;0.65;;;;;;;;;;5063881;28;20188;-87
2021/11/22 13:23:18;;;;;;;0.70;0.70;;;;;;;;;;5065083;28;20046;-87
2021/11/22 13:25:45;;;;;;;0.60;0.60;;;;;;;;;;5061518;28;20045;-87
2021/11/22 13:28:13;;;;;;;0.60;0.60;;;;;;;;;;5067036;28;20029;-86
2021/11/22 13:30:40;;;;;;;0.60;0.60;;;;;;;;;;5065873;28;20029;-86
2021/11/22 13:33:07;;;;;;;0.60;0.60;;;;;;;;;;5065634;28;20028;-87
2021/11/22 13:35:34;;;;;;;0.50;0.50;;;;;;;;;;5064239;28;20040;-87
2021/11/22 13:38:17;;;;;;;0.32;0.32;;;;;;;;;;5064637;28;20040;-87
2021/11/22 13:40:44;;;;;;;0.40;0.40;;;;;;;;;;5047685;28;20123;-88
2021/11/22 13:43:13;;;;;;;0.60;0.60;;;;;;;;;;5071374;28;20571;-88
2021/11/22 13:45:40;;;;;;;0.50;0.50;;;;;;;;;;5069354;28;20044;-88
2021/11/22 13:48:06;;;;;;;0.40;0.40;;;;;;;;;;5069278;28;20564;-87
2021/11/22 13:50:46;;;;;;;0.40;0.40;;;;;;;;;;5068968;28;20042;-86
2021/11/22 13:53:15;;;;;;;0.40;0.40;;;;;;;;;;5068957;28;20028;-87
2021/11/22 13:55:42;;;;;;;1.02;1.02;;;;;;;;;;5048854;28;20037;-86
2021/11/22 13:58:15;;;;;;;0.50;0.50;;;;;;;;;;5078391;28;20028;-87
2021/11/22 14:00:51;;;;;;;0.40;0.40;;;;;;;;;;5068373;28;20040;-87
2021/11/22 14:03:18;;;;;;;0.40;0.40;;;;;;;;;;5068760;28;20652;-88
2021/11/22 14:05:45;;;;;;;0.50;0.50;;;;;;;;;;5068845;28;20040;-87
2021/11/22 14:08:13;;;;;;;0.50;0.50;;;;;;;;;;5068169;28;20115;-87
2021/11/22 14:10:40;;;;;;;0.50;0.50;;;;;;;;;;5062666;28;20067;-87
2021/11/22 14:13:17;;;;;;;0.50;0.50;;;;;;;;;;5071508;28;20112;-87
2021/11/22 14:15:45;;;;;;;0.50;0.50;;;;;;;;;;5071799;28;20024;-87
2021/11/22 14:18:12;;;;;;;0.43;0.43;;;;;;;;;;5072238;28;20557;-87
2021/11/22 14:20:49;;;;;;;0.70;0.70;;;;;;;;;;5068548;28;20039;-88
2021/11/22 14:23:22;;;;;;;0.40;0.40;;;;;;;;;;5068714;28;20032;-88
2021/11/22 14:25:57;;;;;;;0.40;0.40;;;;;;;;;;5064407;28;20044;-87
2021/11/22 14:28:23;;;;;;;0.50;0.50;;;;;;;;;;5066890;28;20446;-87
2021/11/22 14:30:49;;;;;;;0.40;0.40;;;;;;;;;;5070395;28;20060;-87
2021/11/22 14:33:16;;;;;;;1.00;1.00;;;;;;;;;;5067196;28;20028;-87
2021/11/22 14:35:45;;;;;;;0.50;0.50;;;;;;;;;;5068419;28;20036;-87
2021/11/22 14:38:17;;;;;;;0.47;0.47;;;;;;;;;;5067699;28;20020;-85
2021/11/22 14:40:47;;;;;;;0.50;0.50;;;;;;;;;;5048494;28;20029;-87
2021/11/22 14:43:20;;;;;;;0.60;0.60;;;;;;;;;;5068811;28;20123;-87
2021/11/22 14:45:48;;;;;;;0.50;0.50;;;;;;;;;;5067108;28;20051;-87
2021/11/22 14:48:18;;;;;;;0.60;0.60;;;;;;;;;;5068521;28;20031;-86
2021/11/22 14:50:44;;;;;;;0.60;0.60;;;;;;;;;;5065812;28;20028;-87
2021/11/22 14:53:19;;;;;;;0.50;0.50;;;;;;;;;;5063728;28;20505;-86